Portada
METAR-TAF:

METAR-TAF

Aeroports :

Yurimaguas, Perú

latitud: 05-54S, longitud: 076-05W, altitud: 179 m

Observació

L'informe es va fer fa 12 hores i 25 minuts, a les 20:00 UTC
Vent calma
Temperatura 29°C
Humitat 70%
Pressió 1014 hPa
Visibilitat 10 km o més
Escasses núvols a una alçada de 2000 ft

METAR: SPMS 252000Z 00000KT 9999 FEW020 29/23 Q1014 RMK BIRD HAZARD RWY 09/27 PP000

Hora: 03:25 (08:25 UTC)

Pronòstic

L'informe es va fer fa 15 hores i 25 minuts, a les 17:00 UTC
Pronòstic vàlid del 25 a les 18 UTC al 26 a les 18 UTC
Visibilitat 10 km o més
Escasses núvols a una alçada de 2000 ft
Temporalment
l' 26 a les 12 UTC al 26 a les 16 UTC
Visibilitat: 0500 m
Cel ennuvolat a una alçada de 500 ft
Cel cobert a una alçada de 7000 ft
boira

TAF: SPMS 251700Z 2518/2618 1507KT 9999 FEW020 TX26/2520Z TN18/2611Z TEMPO 2612/2616 0500 FG BKN005 OVC070

Observacions i pronòstics meteorològics de més de 4000 aeroports (METAR i TAF).

Les estacions disponibles són els punts grocs i vermells al mapa.

Posi el ratolí al punt desitjat per veure el nom de l'estació.

Feu clic per veure les observacions i els pronòstics meteorològics.

Per canviar el mapa: feu clic els botons verds amb una creu de color negre per apropar; al botó verd amb un guió per allunyar la imatge; o en les fletxes verdes per a mapes adjacents.


METAR-TAF: